createdAt,value
2022-10-17T00:02:05.598Z,11.60
2022-10-17T00:07:09.023Z,11.60
2022-10-17T00:12:16.904Z,11.60
2022-10-17T00:17:18.983Z,11.60
2022-10-17T00:22:22.429Z,11.60
2022-10-17T00:27:24.767Z,11.50
2022-10-17T00:32:29.089Z,11.50
2022-10-17T00:37:33.686Z,11.40
2022-10-17T00:42:36.082Z,11.40
2022-10-17T00:47:41.974Z,11.40
2022-10-17T00:52:46.831Z,11.40
2022-10-17T00:57:49.472Z,11.30
2022-10-17T01:02:51.636Z,11.20
2022-10-17T01:07:55.874Z,11.10
2022-10-17T01:13:05.524Z,11.00
2022-10-17T01:18:16.105Z,10.90
2022-10-17T01:23:31.555Z,10.90
2022-10-17T01:29:07.374Z,10.90
2022-10-17T01:34:17.176Z,10.80
2022-10-17T01:39:38.516Z,10.80
2022-10-17T01:44:47.696Z,10.60
2022-10-17T01:49:53.771Z,10.60
2022-10-17T01:55:07.316Z,10.60
2022-10-17T02:00:13.622Z,10.60
2022-10-17T02:05:18.588Z,10.60
2022-10-17T02:10:26.437Z,10.60
2022-10-17T02:16:00.490Z,10.60
2022-10-17T02:21:09.453Z,10.60
2022-10-17T02:26:15.367Z,10.60
2022-10-17T02:31:21.683Z,10.60
2022-10-17T02:36:30.436Z,10.50
2022-10-17T02:41:34.264Z,10.40
2022-10-17T02:46:38.544Z,10.40
2022-10-17T02:51:46.737Z,10.30
2022-10-17T02:56:57.593Z,10.30
2022-10-17T03:02:03.564Z,10.30
2022-10-17T03:07:07.963Z,10.30
2022-10-17T03:12:11.083Z,10.20
2022-10-17T03:17:14.093Z,10.20
2022-10-17T03:22:18.603Z,10.20
2022-10-17T03:27:21.929Z,10.20
2022-10-17T03:32:24.263Z,10.10
2022-10-17T03:37:28.800Z,10.10
2022-10-17T03:42:34.866Z,10.00
2022-10-17T03:47:38.074Z,10.00
2022-10-17T03:52:45.059Z,9.90
2022-10-17T03:57:48.697Z,9.90
2022-10-17T04:02:54.019Z,9.90
2022-10-17T04:08:00.968Z,9.80
2022-10-17T04:13:09.747Z,9.70
2022-10-17T04:18:12.157Z,9.70
2022-10-17T04:23:16.340Z,9.70
2022-10-17T04:28:22.099Z,9.70
2022-10-17T04:33:25.019Z,9.60
2022-10-17T04:38:34.313Z,9.60
2022-10-17T04:43:43.552Z,9.70
2022-10-17T04:48:50.331Z,9.60
2022-10-17T04:53:56.468Z,9.50
2022-10-17T04:59:00.665Z,9.50
2022-10-17T05:04:04.207Z,9.50
2022-10-17T05:09:08.221Z,9.50
2022-10-17T05:14:11.072Z,9.50
2022-10-17T05:19:13.708Z,9.40
2022-10-17T05:24:19.359Z,9.50
2022-10-17T05:29:22.042Z,9.50
2022-10-17T05:34:25.269Z,9.50
2022-10-17T05:39:31.003Z,9.50
2022-10-17T05:44:33.520Z,9.60
2022-10-17T05:49:46.287Z,9.70
2022-10-17T05:54:55.452Z,9.70
2022-10-17T05:59:57.818Z,9.80
2022-10-17T06:05:03.058Z,9.80
2022-10-17T06:10:07.465Z,9.90
2022-10-17T06:15:10.544Z,10.00
2022-10-17T06:20:12.687Z,10.10
2022-10-17T06:25:16.274Z,10.30
2022-10-17T06:30:18.491Z,10.40
2022-10-17T06:35:20.719Z,10.60
2022-10-17T06:40:22.288Z,10.70
2022-10-17T06:45:25.975Z,10.90
2022-10-17T06:50:28.086Z,11.00
2022-10-17T06:55:30.153Z,11.00
2022-10-17T07:00:36.651Z,11.20
2022-10-17T07:10:55.114Z,11.40
2022-10-17T07:16:01.817Z,11.50
2022-10-17T07:21:09.657Z,11.50
2022-10-17T07:26:14.863Z,11.80
2022-10-17T07:31:20.062Z,11.90
2022-10-17T07:47:31.418Z,12.30
2022-10-17T07:52:38.694Z,12.50
2022-10-17T07:57:41.305Z,12.60
2022-10-17T08:02:44.715Z,12.80
2022-10-17T08:07:49.552Z,12.80
2022-10-17T08:12:51.635Z,13.00
2022-10-17T08:17:55.759Z,13.20
2022-10-17T08:28:23.393Z,13.40
2022-10-17T08:33:27.312Z,13.50
2022-10-17T08:38:35.153Z,13.70
2022-10-17T08:49:24.790Z,14.00
2022-10-17T08:54:42.954Z,14.10
2022-10-17T08:59:46.134Z,14.40
2022-10-17T09:05:01.826Z,14.50
2022-10-17T09:10:17.378Z,14.80
2022-10-17T09:15:50.193Z,15.10
2022-10-17T09:20:55.795Z,15.30
2022-10-17T09:26:01.627Z,15.70
2022-10-17T09:31:06.888Z,16.00
2022-10-17T09:36:14.464Z,16.30
2022-10-17T09:41:45.570Z,16.60
2022-10-17T09:47:01.134Z,16.90
2022-10-17T09:52:05.465Z,17.20
2022-10-17T09:57:11.430Z,17.50
2022-10-17T10:02:22.428Z,17.80
2022-10-17T10:07:29.103Z,17.80
2022-10-17T10:12:35.704Z,17.90
2022-10-17T10:17:41.679Z,18.40
2022-10-17T10:22:43.840Z,18.80
2022-10-17T10:27:48.472Z,19.00
2022-10-17T10:32:51.398Z,19.60
2022-10-17T10:37:55.140Z,20.20
2022-10-17T10:43:05.198Z,20.50
2022-10-17T10:48:19.818Z,20.90
2022-10-17T10:53:38.065Z,21.40
2022-10-17T10:58:50.748Z,21.50
2022-10-17T11:04:09.068Z,21.80
2022-10-17T11:09:24.621Z,22.00
2022-10-17T11:14:38.241Z,22.00
2022-10-17T11:19:45.755Z,22.30
2022-10-17T11:24:57.094Z,22.60
2022-10-17T11:30:00.886Z,22.80
2022-10-17T11:35:08.158Z,22.70
2022-10-17T11:40:21.928Z,22.90
2022-10-17T11:45:30.570Z,23.30
2022-10-17T11:56:00.291Z,23.60
2022-10-17T12:01:11.002Z,23.50
2022-10-17T12:06:25.825Z,23.60
2022-10-17T12:11:39.825Z,24.20
2022-10-17T12:16:51.014Z,24.50
2022-10-17T12:22:01.541Z,24.70
2022-10-17T12:27:42.485Z,24.90
2022-10-17T12:33:07.491Z,25.00
2022-10-17T12:38:26.882Z,25.10
2022-10-17T12:43:59.287Z,25.30
2022-10-17T12:49:22.454Z,25.20
2022-10-17T12:54:31.432Z,25.30
2022-10-17T12:59:45.165Z,24.90
2022-10-17T13:04:50.105Z,25.00
2022-10-17T13:09:53.339Z,25.00
2022-10-17T13:15:02.136Z,24.90
2022-10-17T13:20:27.554Z,24.60
2022-10-17T13:25:37.607Z,24.40
2022-10-17T13:30:50.090Z,24.40
2022-10-17T13:36:04.124Z,24.60
2022-10-17T13:41:35.779Z,24.90
2022-10-17T13:47:00.294Z,25.00
2022-10-17T13:52:30.053Z,24.90
2022-10-17T13:57:43.452Z,25.00
2022-10-17T14:02:47.535Z,25.40
2022-10-17T14:08:15.883Z,25.60
2022-10-17T14:13:24.650Z,25.90
2022-10-17T14:18:35.746Z,25.90
2022-10-17T14:23:44.457Z,25.40
2022-10-17T14:28:49.951Z,24.90
2022-10-17T14:33:56.494Z,24.50
2022-10-17T14:39:01.988Z,24.00
2022-10-17T14:44:09.589Z,23.70
2022-10-17T14:49:24.316Z,23.00
2022-10-17T14:54:30.733Z,22.50
2022-10-17T14:59:53.374Z,21.90
2022-10-17T15:04:56.900Z,21.70
2022-10-17T15:10:04.483Z,21.40
2022-10-17T15:15:11.545Z,21.40
2022-10-17T15:20:16.707Z,21.30
2022-10-17T15:25:24.090Z,21.10
2022-10-17T15:30:32.573Z,20.80
2022-10-17T15:35:39.074Z,20.70
2022-10-17T15:40:43.749Z,20.50
2022-10-17T15:45:47.850Z,20.20
2022-10-17T15:50:53.829Z,20.10
2022-10-17T15:55:58.662Z,19.80
2022-10-17T16:01:04.046Z,19.50
2022-10-17T16:06:10.740Z,19.30
2022-10-17T16:11:23.907Z,19.10
2022-10-17T16:16:27.548Z,18.90
2022-10-17T16:21:34.972Z,18.60
2022-10-17T16:26:38.809Z,18.50
2022-10-17T16:31:43.511Z,18.30
2022-10-17T16:36:45.614Z,18.10
2022-10-17T16:41:52.534Z,18.00
2022-10-17T16:46:56.973Z,17.90
2022-10-17T16:52:00.421Z,17.80
2022-10-17T16:57:05.710Z,17.70
2022-10-17T17:02:11.663Z,17.50
2022-10-17T17:07:14.875Z,17.50
2022-10-17T17:12:24.137Z,17.40
2022-10-17T17:17:44.276Z,17.30
2022-10-17T17:22:52.522Z,17.20
2022-10-17T17:27:56.854Z,17.10
2022-10-17T17:33:00.289Z,17.10
2022-10-17T17:38:05.133Z,16.90
2022-10-17T17:43:09.692Z,16.80
2022-10-17T17:48:12.904Z,16.70
2022-10-17T17:53:18.109Z,16.70
2022-10-17T17:58:27.354Z,16.60
2022-10-17T18:03:29.885Z,16.40
2022-10-17T18:08:32.642Z,16.40
2022-10-17T18:13:37.970Z,16.30
2022-10-17T18:18:43.439Z,16.20
2022-10-17T18:23:50.016Z,16.20
2022-10-17T18:28:55.657Z,16.10
2022-10-17T18:34:01.680Z,16.10
2022-10-17T18:39:05.102Z,16.00
2022-10-17T18:44:10.163Z,16.00
2022-10-17T18:49:15.529Z,15.90
2022-10-17T19:00:00.225Z,15.70
2022-10-17T19:05:03.497Z,15.70
2022-10-17T19:10:05.999Z,15.60
2022-10-17T19:15:10.486Z,15.60
2022-10-17T19:20:14.053Z,15.60
2022-10-17T19:25:16.621Z,15.50
2022-10-17T19:30:21.135Z,15.50
2022-10-17T19:35:24.805Z,15.40
2022-10-17T19:40:27.910Z,15.40
2022-10-17T19:45:31.964Z,15.30
2022-10-17T19:50:36.682Z,15.30
2022-10-17T19:55:42.690Z,15.20
2022-10-17T20:00:54.015Z,15.20
2022-10-17T20:05:57.991Z,15.20
2022-10-17T20:11:05.266Z,15.10
2022-10-17T20:16:12.607Z,15.10
2022-10-17T20:21:17.197Z,15.00
2022-10-17T20:26:33.626Z,15.00
2022-10-17T20:31:42.262Z,15.00
2022-10-17T20:36:44.558Z,14.90
2022-10-17T20:41:47.240Z,14.80
2022-10-17T20:47:01.731Z,14.80
2022-10-17T20:52:10.257Z,14.70
2022-10-17T20:57:12.488Z,14.70
2022-10-17T21:02:16.284Z,14.70
2022-10-17T21:07:19.600Z,14.70
2022-10-17T21:12:31.363Z,14.70
2022-10-17T21:17:40.357Z,14.60
2022-10-17T21:22:42.604Z,14.60
2022-10-17T21:27:44.918Z,14.60
2022-10-17T21:32:52.071Z,14.60
2022-10-17T21:37:59.202Z,14.60
2022-10-17T21:43:01.276Z,14.60
2022-10-17T21:48:13.321Z,14.60
2022-10-17T21:53:15.869Z,14.60
2022-10-17T21:58:17.970Z,14.50
2022-10-17T22:03:26.326Z,14.40
2022-10-17T22:08:29.138Z,14.40
2022-10-17T22:13:31.223Z,14.40
2022-10-17T22:18:35.230Z,14.30
2022-10-17T22:23:38.407Z,14.20
2022-10-17T22:28:41.928Z,14.10
2022-10-17T22:33:45.669Z,14.10
2022-10-17T22:38:47.799Z,13.90
2022-10-17T22:43:49.903Z,13.80
2022-10-17T22:48:58.841Z,13.70
2022-10-17T22:54:00.930Z,13.50
2022-10-17T22:59:03.008Z,13.50
2022-10-17T23:04:06.580Z,13.40
2022-10-17T23:09:09.129Z,13.40
2022-10-17T23:14:11.215Z,13.30
2022-10-17T23:19:15.110Z,13.20
2022-10-17T23:24:17.496Z,13.20
2022-10-17T23:29:19.873Z,13.00
2022-10-17T23:34:23.946Z,12.90
2022-10-17T23:39:26.053Z,12.70
2022-10-17T23:44:28.139Z,12.70
2022-10-17T23:49:32.406Z,12.70
2022-10-17T23:54:34.551Z,12.60
2022-10-17T23:59:36.715Z,12.60
